Ironwood, MI

1:58 AM CST on February 11, 2016 (GMT -0600)
North of US 2 | | Change Station
CLOSE
Current Station
Personal Weather Station
Location: Ironwood, MI
Elevation: 1490 ft
Nearby Weather Stations

Elev 1490 ft 46.47 °N, 90.15 °W | Updated 30 seconds ago

Overcast
Overcast
5.2 °F
Feels Like -2 °F
N
3.4
Wind Variable Wind from NW
Gusts 4.9 mph

Today
High -- | Low -- °F
--% Chance of Precip.
Yesterday
High -- | Low -- °F
Precip. -- in
Pressure 30.13 in
Visibility 8.0 miles
Clouds Overcast 2300 ft
Windchill -2 °F
Dew Point -1 °F
Humidity 77%
Rainfall 0.00 in
Snow Depth Not available.
7:10 AM 5:19 PM
Waxing Crescent, 10% visible
METAR KIWD 110755Z AUTO 23007KT 8SM OVC023 M14/M17 A3013 RMK AO1
Pressure 30.13 in
Visibility 8.0 miles
Clouds Overcast 2300 ft
Windchill -2 °F
Dew Point -1 °F
Humidity 77%
Rainfall 0.00 in
Snow Depth Not available.
7:10 AM 5:19 PM
Waxing Crescent, 10% visible
METAR KIWD 110755Z AUTO 23007KT 8SM OVC023 M14/M17 A3013 RMK AO1

10-Day Weather Forecast

Almanac

Astronomy

Feb. 11, 2016 Rise Set
Actual Time
Civil Twilight
Nautical Twilight
Astronomical Twilight
Moon
Length of Visible Light
Length of Day
Tomorrow will be .
, % of the Moon is Illuminated

Today's Extremes

State Highs State Lows

Community

WunderPhotos

Upload Photos

1,892,030 photos uploaded!

WunderBlog® & News

Nearby

Air Quality

  Air Quality AQ Index Pollutant
Not available.

Snow Depth

Station Depth Elevation

Earthquake Activity

City Distance Mag. Time & Date
Minimum magnitude displayed is 2.5.

Coastal Water Temperatures

Place Temperature

Stations

Nearby Weather Stations

Station Location Temp. Windchill Dew Point Humidity Wind Precip. Elev Updated Type
                   

Watches & Warnings

There are currently no watches in effect.